createdAt,value
2023-04-23T16:36:26.319Z,25.00
2023-04-23T16:37:25.708Z,24.10
2023-04-23T16:38:25.040Z,26.10
2023-04-23T16:39:25.291Z,23.10
2023-04-23T16:40:25.611Z,26.80
2023-04-23T16:41:24.886Z,27.00
2023-04-23T16:43:03.845Z,27.00
2023-04-23T16:44:04.298Z,27.10
2023-04-23T16:46:04.327Z,27.00
2023-04-23T16:48:04.239Z,27.00
2023-04-23T16:49:03.630Z,27.00
2023-04-23T16:50:06.660Z,26.80
2023-04-23T16:51:09.032Z,26.90
2023-04-23T16:53:06.157Z,27.40
2023-04-23T16:54:07.003Z,27.50
2023-04-23T16:55:04.794Z,27.60
2023-04-23T16:56:03.553Z,27.70
2023-04-23T16:57:03.978Z,27.80
2023-04-23T16:58:03.561Z,28.00
2023-04-23T16:59:04.077Z,28.10
2023-04-23T17:00:11.049Z,28.50
2023-04-23T17:02:03.753Z,28.60
2023-04-23T17:03:04.570Z,28.60
2023-04-23T17:04:04.617Z,28.80
2023-04-23T17:05:04.202Z,27.10
2023-04-23T17:06:03.685Z,28.80
2023-04-23T17:07:04.240Z,28.90
2023-04-23T17:08:08.869Z,29.10
2023-04-23T17:10:04.022Z,29.40
2023-04-23T17:11:06.170Z,29.60
2023-04-23T17:12:06.052Z,29.90
2023-04-23T17:13:06.879Z,29.90
2023-04-23T17:15:06.306Z,30.30
2023-04-23T17:16:08.834Z,30.50
2023-04-23T17:18:06.266Z,30.50
2023-04-23T17:19:06.179Z,30.60
2023-04-23T17:20:03.716Z,30.60
2023-04-23T17:21:04.299Z,30.70
2023-04-23T17:22:03.721Z,31.00
2023-04-23T17:23:04.241Z,31.00
2023-04-23T17:24:06.204Z,30.80
2023-04-23T17:26:06.593Z,30.70
2023-04-23T17:28:04.453Z,30.70
2023-04-23T17:29:06.669Z,30.80
2023-04-23T17:30:06.551Z,30.80
2023-04-23T17:31:06.491Z,31.00
2023-04-23T17:33:04.561Z,31.10
2023-04-23T17:34:04.123Z,31.00
2023-04-23T17:35:11.065Z,31.00
2023-04-23T17:36:03.730Z,31.10
2023-04-23T17:37:04.226Z,31.10
2023-04-23T17:38:08.761Z,31.20
2023-04-23T17:39:04.148Z,31.20
2023-04-23T17:40:06.211Z,31.40
2023-04-23T17:41:03.706Z,31.40
2023-04-23T17:42:06.677Z,31.40
2023-04-23T17:44:03.547Z,31.40
2023-04-23T17:45:09.121Z,31.70
2023-04-23T17:47:04.294Z,31.70
2023-04-23T17:49:04.500Z,31.70
2023-04-23T17:50:08.986Z,31.80
2023-04-23T17:54:04.352Z,31.80
2023-04-23T17:55:03.844Z,31.90
2023-04-23T17:56:09.456Z,31.90
2023-04-23T17:58:06.832Z,32.10
2023-04-23T18:00:06.206Z,32.20
2023-04-23T18:02:07.040Z,32.30
2023-04-23T18:03:04.886Z,32.30
2023-04-23T18:04:08.978Z,32.60
2023-04-23T18:06:04.577Z,32.70
2023-04-23T18:07:04.283Z,32.90
2023-04-23T18:09:04.474Z,33.10
2023-04-23T18:10:06.531Z,33.40
2023-04-23T18:11:06.622Z,33.50
2023-04-23T18:12:11.674Z,33.80
2023-04-23T18:13:04.094Z,33.70
2023-04-23T18:14:03.513Z,33.90
2023-04-23T18:15:04.021Z,34.10
2023-04-23T18:16:06.880Z,34.70
2023-04-23T18:17:04.440Z,34.70
2023-04-23T18:18:06.533Z,35.00
2023-04-23T18:19:06.825Z,35.30
2023-04-23T18:20:04.070Z,35.40
2023-04-23T18:21:06.047Z,35.80
2023-04-23T18:22:04.460Z,35.90
2023-04-23T18:23:03.864Z,36.30
2023-04-23T18:24:04.321Z,36.50
2023-04-23T18:25:03.751Z,36.70
2023-04-23T18:26:04.274Z,37.00
2023-04-23T18:27:06.215Z,37.60
2023-04-23T18:29:04.010Z,37.70
2023-04-23T18:30:04.460Z,38.20
2023-04-23T18:31:06.653Z,38.20
2023-04-23T18:32:27.765Z,38.30
2023-04-23T18:34:04.382Z,38.40
2023-04-23T18:36:04.484Z,38.50
2023-04-23T18:38:03.517Z,38.70
2023-04-23T18:39:06.669Z,38.70
2023-04-23T18:41:06.934Z,38.80
2023-04-23T18:42:09.364Z,38.90
2023-04-23T18:43:03.640Z,39.00
2023-04-23T18:44:04.092Z,39.10
2023-04-23T18:46:04.116Z,39.10
2023-04-23T18:47:03.650Z,39.30
2023-04-23T18:48:04.199Z,39.40
2023-04-23T18:49:06.258Z,38.90
2023-04-23T18:51:06.620Z,39.10
2023-04-23T18:53:12.017Z,39.30
2023-04-23T18:55:04.252Z,39.60
2023-04-23T18:56:03.802Z,39.90
2023-04-23T18:57:04.331Z,40.20
2023-04-23T18:58:06.359Z,40.60
2023-04-23T18:59:08.794Z,40.20
2023-04-23T19:01:03.700Z,40.30
2023-04-23T19:02:09.404Z,40.60
2023-04-23T19:03:25.668Z,40.90
2023-04-23T19:05:06.563Z,41.20
2023-04-23T19:07:04.497Z,40.90
2023-04-23T19:09:09.314Z,41.10
2023-04-23T19:10:03.638Z,41.20
2023-04-23T19:11:03.929Z,41.50
2023-04-23T19:12:04.456Z,41.60
2023-04-23T19:14:06.064Z,41.60
2023-04-23T19:18:04.110Z,41.90
2023-04-23T19:19:06.210Z,41.90
2023-04-23T19:20:06.054Z,41.70
2023-04-23T19:22:03.872Z,41.60
2023-04-23T19:23:06.882Z,41.90
2023-04-23T19:25:03.718Z,41.30
2023-04-23T19:26:09.237Z,41.30
2023-04-23T19:27:03.618Z,41.30
2023-04-23T19:28:04.076Z,41.20
2023-04-23T19:30:04.019Z,41.40
2023-04-23T19:32:06.603Z,40.60
2023-04-23T19:33:03.991Z,40.60
2023-04-23T19:34:03.487Z,41.20
2023-04-23T19:35:03.985Z,41.10
2023-04-23T19:36:04.478Z,41.10
2023-04-23T19:38:06.079Z,40.70
2023-04-23T19:39:04.405Z,40.80
2023-04-23T19:40:03.807Z,41.10
2023-04-23T19:41:04.355Z,41.50
2023-04-23T19:42:03.917Z,41.90
2023-04-23T19:43:03.471Z,41.80
2023-04-23T19:44:04.056Z,41.30
2023-04-23T19:45:03.480Z,41.30
2023-04-23T19:46:03.941Z,41.50
2023-04-23T19:47:04.457Z,41.40
2023-04-23T19:48:04.115Z,41.30
2023-04-23T19:50:04.017Z,41.40
2023-04-23T19:51:08.615Z,41.50
2023-04-23T19:53:03.533Z,41.60
2023-04-23T19:54:04.040Z,41.60
2023-04-23T19:55:03.451Z,41.80
2023-04-23T19:56:03.936Z,42.10
2023-04-23T19:58:04.005Z,42.20
2023-04-23T19:59:03.503Z,42.00
2023-04-23T20:00:06.627Z,42.10
2023-04-23T20:01:06.706Z,42.30
2023-04-23T20:03:09.003Z,42.40
2023-04-23T20:04:03.520Z,42.40
2023-04-23T20:05:04.098Z,42.40
2023-04-23T20:06:06.138Z,42.40
2023-04-23T20:08:06.508Z,43.10
2023-04-23T20:10:04.380Z,42.70
2023-04-23T20:11:06.418Z,42.70
2023-04-23T20:13:04.266Z,43.20
2023-04-23T20:14:06.328Z,43.10
2023-04-23T20:16:06.777Z,43.30
2023-04-23T20:17:06.899Z,43.90
2023-04-23T20:18:03.611Z,43.70
2023-04-23T20:19:04.162Z,43.70
2023-04-23T20:20:08.769Z,43.90
2023-04-23T20:21:04.199Z,43.80
2023-04-23T20:22:03.701Z,44.10
2023-04-23T20:23:04.196Z,44.40
2023-04-23T20:24:06.254Z,44.30
2023-04-23T20:26:04.105Z,44.30
2023-04-23T20:27:03.562Z,44.60
2023-04-23T20:28:04.071Z,45.30
2023-04-23T20:29:06.047Z,44.60
2023-04-23T20:30:06.968Z,45.10
2023-04-23T20:32:03.817Z,45.20
2023-04-23T20:33:04.527Z,45.10
2023-04-23T20:34:04.161Z,45.00
2023-04-23T20:35:08.687Z,45.80
2023-04-23T20:37:06.040Z,46.10
2023-04-23T20:38:04.381Z,46.10
2023-04-23T20:39:03.782Z,46.10
2023-04-23T20:40:06.801Z,46.30
2023-04-23T20:42:03.614Z,46.60
2023-04-23T20:43:04.019Z,47.00
2023-04-23T20:44:03.461Z,46.80
2023-04-23T20:45:14.031Z,46.90
2023-04-23T20:47:06.633Z,47.20
2023-04-23T20:48:06.643Z,47.30
2023-04-23T20:50:03.414Z,47.40
2023-04-23T20:51:03.913Z,47.60
2023-04-23T20:52:04.409Z,47.50
2023-04-23T20:53:03.869Z,47.60
2023-04-23T20:54:09.376Z,47.90
2023-04-23T20:56:03.655Z,48.20
2023-04-23T20:57:04.239Z,48.20
2023-04-23T20:58:11.406Z,48.50
2023-04-23T21:01:09.469Z,48.20
2023-04-23T21:02:03.806Z,48.40
2023-04-23T21:03:04.538Z,48.50
2023-04-23T21:04:04.241Z,48.20
2023-04-23T21:05:06.395Z,48.40
2023-04-23T21:07:04.215Z,48.50
2023-04-23T21:08:03.659Z,48.80
2023-04-23T21:09:04.169Z,48.60
2023-04-23T21:10:03.624Z,48.50
2023-04-23T21:11:04.152Z,48.50
2023-04-23T21:12:06.229Z,48.40
2023-04-23T21:13:06.099Z,48.30
2023-04-23T21:15:03.907Z,48.90
2023-04-23T21:16:04.499Z,49.00
2023-04-23T21:17:04.059Z,49.30
2023-04-23T21:18:08.661Z,50.30
2023-04-23T21:19:04.000Z,50.10
2023-04-23T21:20:03.441Z,50.30
2023-04-23T21:21:03.884Z,50.50
2023-04-23T21:22:09.521Z,50.90
2023-04-23T21:25:04.020Z,50.90
2023-04-23T21:26:08.624Z,51.40
2023-04-23T21:28:11.659Z,52.30
2023-04-23T21:30:03.670Z,52.40
2023-04-23T21:31:04.123Z,52.60
2023-04-23T21:32:06.158Z,53.50
2023-04-23T21:33:06.179Z,54.10
2023-04-23T21:34:11.233Z,54.00
2023-04-23T21:35:03.700Z,54.00
2023-04-23T21:36:04.294Z,54.20
2023-04-23T21:38:06.892Z,55.70
2023-04-23T21:40:03.745Z,55.80
2023-04-23T21:41:04.254Z,55.70
2023-04-23T21:42:03.646Z,56.20
2023-04-23T21:43:06.615Z,55.90
2023-04-23T21:44:09.024Z,56.70
2023-04-23T21:45:04.322Z,55.50
2023-04-23T21:46:06.337Z,56.00
2023-04-23T21:48:04.560Z,56.10
2023-04-23T21:49:04.058Z,55.90
2023-04-23T21:50:03.484Z,55.80
2023-04-23T21:51:06.564Z,56.70
2023-04-23T21:53:06.895Z,56.70
2023-04-23T21:55:03.759Z,57.00
2023-04-23T21:56:04.238Z,56.10
2023-04-23T21:57:06.379Z,56.90
2023-04-23T21:58:17.920Z,56.90
2023-04-23T21:59:03.646Z,57.30
2023-04-23T22:00:09.481Z,56.90
2023-04-23T22:02:04.424Z,56.60
2023-04-23T22:03:04.505Z,56.70
2023-04-23T22:04:04.521Z,56.90
2023-04-23T22:05:04.175Z,56.80
2023-04-23T22:06:03.651Z,56.90
2023-04-23T22:07:04.093Z,56.60
2023-04-23T22:08:06.057Z,57.00
2023-04-23T22:09:06.927Z,57.40
2023-04-23T22:10:06.816Z,57.20
2023-04-23T22:13:04.163Z,58.20
2023-04-23T22:14:06.218Z,58.40
2023-04-23T22:16:16.763Z,58.20
2023-04-23T22:17:04.416Z,58.30
2023-04-23T22:19:03.501Z,59.20
2023-04-23T22:20:06.479Z,58.00
2023-04-23T22:21:06.386Z,57.80
2023-04-23T22:22:06.258Z,58.00
2023-04-23T22:23:06.185Z,57.70
2023-04-23T22:25:06.558Z,57.80
2023-04-23T22:27:04.362Z,57.70
2023-04-23T22:28:06.377Z,57.60
2023-04-23T22:30:06.910Z,57.50
2023-04-23T22:32:08.981Z,58.00
2023-04-23T22:34:06.439Z,58.00
2023-04-23T22:36:04.317Z,59.10
2023-04-23T22:37:03.790Z,67.10
2023-04-23T22:38:04.260Z,58.50
2023-04-23T22:39:06.390Z,59.60
2023-04-23T22:40:06.359Z,59.00
2023-04-23T22:41:03.912Z,60.80
2023-04-23T22:42:03.500Z,60.00
2023-04-23T22:43:04.056Z,65.00
2023-04-23T22:45:06.586Z,60.10
2023-04-23T22:46:06.546Z,59.00
2023-04-23T22:48:04.530Z,59.30
2023-04-23T22:49:04.027Z,60.00
2023-04-23T22:50:06.003Z,60.20
2023-04-23T22:52:06.590Z,58.50
2023-04-23T22:54:04.437Z,58.60
2023-04-23T22:56:03.543Z,58.50
2023-04-23T22:57:06.527Z,58.10
2023-04-23T22:58:06.423Z,58.20
2023-04-23T23:00:04.160Z,58.20
2023-04-23T23:02:04.130Z,61.50
2023-04-23T23:04:06.908Z,58.30
2023-04-23T23:05:06.907Z,61.30
2023-04-23T23:06:09.421Z,58.20
2023-04-23T23:08:04.453Z,59.20
2023-04-23T23:10:03.504Z,58.80
2023-04-23T23:11:04.023Z,57.90
2023-04-23T23:13:06.537Z,58.50
2023-04-23T23:15:06.013Z,60.50
2023-04-23T23:16:06.953Z,58.30
2023-04-23T23:18:03.941Z,59.30
2023-04-23T23:19:04.434Z,59.20
2023-04-23T23:20:03.931Z,60.80
2023-04-23T23:21:04.368Z,58.90
2023-04-23T23:22:06.360Z,65.00
2023-04-23T23:24:03.696Z,58.30
2023-04-23T23:25:06.717Z,58.00
2023-04-23T23:26:04.038Z,58.00
2023-04-23T23:27:06.066Z,58.00
2023-04-23T23:29:03.856Z,58.00
2023-04-23T23:30:06.120Z,57.90
2023-04-23T23:32:06.149Z,58.10
2023-04-23T23:33:08.589Z,58.00
2023-04-23T23:35:03.774Z,58.10
2023-04-23T23:36:06.826Z,58.10
2023-04-23T23:38:06.237Z,58.00
2023-04-23T23:40:04.206Z,58.10
2023-04-23T23:41:08.852Z,58.20
2023-04-23T23:44:04.248Z,58.20
2023-04-23T23:45:03.738Z,58.30
2023-04-23T23:46:04.274Z,58.50
2023-04-23T23:47:06.428Z,58.60
2023-04-23T23:48:06.385Z,58.60
2023-04-23T23:49:09.254Z,58.60
2023-04-23T23:50:03.618Z,58.50
2023-04-23T23:51:04.129Z,58.70
2023-04-23T23:52:06.109Z,59.00
2023-04-23T23:54:06.521Z,59.20
2023-04-23T23:55:03.989Z,59.50
2023-04-23T23:56:06.080Z,63.20
2023-04-23T23:57:06.926Z,65.90
2023-04-23T23:59:03.912Z,60.00
